createdAt,value
2023-07-24T00:01:14.674Z,99826.97
2023-07-24T00:03:48.378Z,99828.41
2023-07-24T00:06:21.651Z,99825.72
2023-07-24T00:08:53.070Z,99827.38
2023-07-24T00:11:24.047Z,99827.31
2023-07-24T00:13:54.757Z,99814.50
2023-07-24T00:16:25.479Z,99828.22
2023-07-24T00:18:56.271Z,99823.03
2023-07-24T00:21:29.552Z,99816.88
2023-07-24T00:24:02.144Z,99816.97
2023-07-24T00:26:33.078Z,99815.16
2023-07-24T00:29:04.532Z,99798.91
2023-07-24T00:31:35.410Z,99802.94
2023-07-24T00:34:06.764Z,99809.09
2023-07-24T00:36:41.591Z,99804.66
2023-07-24T00:39:14.274Z,99813.13
2023-07-24T00:41:47.815Z,99808.81
2023-07-24T00:44:18.877Z,99806.31
2023-07-24T00:46:50.253Z,99803.94
2023-07-24T00:49:21.523Z,99789.28
2023-07-24T00:51:56.919Z,99803.34
2023-07-24T00:54:34.846Z,99811.88
2023-07-24T00:57:06.837Z,99817.84
2023-07-24T00:59:38.630Z,99809.31
2023-07-24T01:02:10.394Z,99820.47
2023-07-24T01:04:44.430Z,99817.06
2023-07-24T01:07:20.244Z,99809.31
2023-07-24T01:09:52.314Z,99805.00
2023-07-24T01:12:35.329Z,99803.47
2023-07-24T01:15:15.692Z,99796.69
2023-07-24T01:17:52.465Z,99801.88
2023-07-24T01:20:25.536Z,99799.31
2023-07-24T01:23:19.925Z,99804.59
2023-07-24T01:26:11.952Z,99803.69
2023-07-24T01:28:49.622Z,99801.75
2023-07-24T01:31:20.793Z,99796.81
2023-07-24T01:33:55.147Z,99794.44
2023-07-24T01:36:28.283Z,99794.38
2023-07-24T01:38:59.212Z,99791.72
2023-07-24T01:41:33.286Z,99785.63
2023-07-24T01:44:04.064Z,99784.41
2023-07-24T01:46:36.067Z,99786.16
2023-07-24T01:49:08.123Z,99782.78
2023-07-24T01:51:39.180Z,99779.38
2023-07-24T01:54:09.853Z,99766.69
2023-07-24T01:56:50.442Z,99765.44
2023-07-24T01:59:21.390Z,99777.84
2023-07-24T02:01:54.480Z,99776.22
2023-07-24T02:04:25.593Z,99776.28
2023-07-24T02:06:56.431Z,99773.75
2023-07-24T02:09:27.130Z,99768.50
2023-07-24T02:12:00.922Z,99765.06
2023-07-24T02:14:31.769Z,99757.94
2023-07-24T02:17:02.376Z,99773.69
2023-07-24T02:19:33.329Z,99771.50
2023-07-24T02:22:04.170Z,99762.63
2023-07-24T02:24:38.732Z,99768.16
2023-07-24T02:27:12.139Z,99763.72
2023-07-24T02:29:44.292Z,99756.66
2023-07-24T02:32:15.312Z,99762.47
2023-07-24T02:34:47.375Z,99762.34
2023-07-24T02:37:18.207Z,99765.53
2023-07-24T02:39:49.130Z,99767.94
2023-07-24T02:42:22.392Z,99768.72
2023-07-24T02:44:54.459Z,99767.00
2023-07-24T02:47:26.075Z,99770.63
2023-07-24T02:49:59.183Z,99771.81
2023-07-24T02:52:30.071Z,99771.00
2023-07-24T02:55:03.116Z,99779.06
2023-07-24T02:57:36.968Z,99780.13
2023-07-24T03:00:10.863Z,99780.38
2023-07-24T03:02:42.272Z,99783.03
2023-07-24T03:05:17.638Z,99765.56
2023-07-24T03:07:49.057Z,99769.19
2023-07-24T03:10:26.486Z,99757.31
2023-07-24T03:12:59.906Z,99771.06
2023-07-24T03:15:36.961Z,99759.78
2023-07-24T03:18:07.937Z,99760.28
2023-07-24T03:20:38.854Z,99767.16
2023-07-24T03:23:09.570Z,99766.41
2023-07-24T03:25:40.233Z,99755.34
2023-07-24T03:28:13.737Z,99740.19
2023-07-24T03:30:44.731Z,99776.75
2023-07-24T03:33:18.032Z,99753.44
2023-07-24T03:35:48.743Z,99766.75
2023-07-24T03:38:19.520Z,99753.22
2023-07-24T03:40:51.056Z,99745.69
2023-07-24T03:43:26.027Z,99761.28
2023-07-24T03:45:57.382Z,99736.50
2023-07-24T03:48:28.089Z,99746.03
2023-07-24T03:51:04.451Z,99743.38
2023-07-24T03:53:35.377Z,99739.34
2023-07-24T03:56:06.361Z,99737.00
2023-07-24T03:58:41.406Z,99734.75
2023-07-24T04:01:12.763Z,99731.31
2023-07-24T04:03:43.968Z,99731.44
2023-07-24T04:06:14.759Z,99715.06
2023-07-24T04:08:45.395Z,99707.72
2023-07-24T04:11:16.060Z,99718.66
2023-07-24T04:14:04.029Z,99709.78
2023-07-24T04:16:46.940Z,99690.50
2023-07-24T04:19:29.875Z,99700.03
2023-07-24T04:22:00.568Z,99698.19
2023-07-24T04:24:31.250Z,99700.84
2023-07-24T04:27:03.322Z,99707.84
2023-07-24T04:29:36.981Z,99689.69
2023-07-24T04:32:08.304Z,99675.13
2023-07-24T04:34:39.080Z,99702.56
2023-07-24T04:37:13.600Z,99700.88
2023-07-24T04:39:46.876Z,99694.97
2023-07-24T04:42:20.184Z,99706.94
2023-07-24T04:44:54.143Z,99691.69
2023-07-24T04:47:25.089Z,99681.53
2023-07-24T04:49:56.556Z,99686.53
2023-07-24T04:52:27.310Z,99688.25
2023-07-24T04:55:01.744Z,99683.44
2023-07-24T04:57:32.781Z,99685.59
2023-07-24T05:00:06.577Z,99679.03
2023-07-24T05:02:40.556Z,99672.44
2023-07-24T05:05:13.753Z,99657.56
2023-07-24T05:08:01.952Z,99654.63
2023-07-24T05:10:33.437Z,99656.69
2023-07-24T05:13:06.817Z,99646.13
2023-07-24T05:15:40.969Z,99637.13
2023-07-24T05:18:11.631Z,99652.53
2023-07-24T05:20:47.589Z,99656.09
2023-07-24T05:23:32.337Z,99655.53
2023-07-24T05:26:06.394Z,99630.06
2023-07-24T05:28:39.955Z,99634.56
2023-07-24T05:31:23.230Z,99628.81
2023-07-24T05:33:59.947Z,99648.75
2023-07-24T05:36:33.977Z,99657.63
2023-07-24T05:39:14.040Z,99648.94
2023-07-24T05:41:44.655Z,99665.94
2023-07-24T05:44:17.714Z,99657.53
2023-07-24T05:46:51.952Z,99659.63
2023-07-24T05:49:22.655Z,99651.75
2023-07-24T05:51:54.142Z,99625.88
2023-07-24T05:54:25.632Z,99632.66
2023-07-24T05:56:56.522Z,99630.63
2023-07-24T05:59:42.530Z,99649.75
2023-07-24T06:02:18.786Z,99662.72
2023-07-24T06:04:50.565Z,99649.75
2023-07-24T06:07:24.091Z,99650.31
2023-07-24T06:10:00.847Z,99633.16
2023-07-24T06:12:35.456Z,99634.97
2023-07-24T06:15:07.550Z,99631.56
2023-07-24T06:17:43.105Z,99623.31
2023-07-24T06:20:18.025Z,99628.84
2023-07-24T06:22:48.840Z,99617.63
2023-07-24T06:25:19.820Z,99611.38
2023-07-24T06:27:50.958Z,99604.53
2023-07-24T06:30:23.920Z,99588.66
2023-07-24T06:32:57.357Z,99594.38
2023-07-24T06:35:28.385Z,99594.63
2023-07-24T06:38:02.272Z,99584.09
2023-07-24T06:40:33.482Z,99585.44
2023-07-24T06:43:04.093Z,99579.59
2023-07-24T06:45:38.608Z,99586.38
2023-07-24T06:48:12.166Z,99590.44
2023-07-24T06:50:45.761Z,99595.56
2023-07-24T06:53:22.388Z,99600.81
2023-07-24T06:55:53.230Z,99602.88
2023-07-24T06:58:35.686Z,99600.41
2023-07-24T07:01:12.572Z,99596.03
2023-07-24T07:03:46.100Z,99600.22
2023-07-24T07:08:55.394Z,99609.25
2023-07-24T07:11:29.498Z,99604.84
2023-07-24T07:14:02.583Z,99605.00
2023-07-24T07:16:33.534Z,99612.75
2023-07-24T07:19:10.654Z,99608.38
2023-07-24T07:21:43.655Z,99604.75
2023-07-24T07:24:16.183Z,99615.91
2023-07-24T07:26:48.791Z,99623.25
2023-07-24T07:29:19.369Z,99633.94
2023-07-24T07:31:50.339Z,99634.78
2023-07-24T07:34:25.930Z,99620.41
2023-07-24T07:36:56.831Z,99628.25
2023-07-24T07:39:28.907Z,99627.75
2023-07-24T07:42:12.361Z,99630.13
2023-07-24T07:44:49.988Z,99620.53
2023-07-24T07:47:21.467Z,99612.66
2023-07-24T07:49:55.028Z,99628.69
2023-07-24T07:52:27.960Z,99630.03
2023-07-24T07:55:00.383Z,99618.25
2023-07-24T07:57:38.521Z,99605.16
2023-07-24T08:00:11.105Z,99616.53
2023-07-24T08:02:50.858Z,99602.47
2023-07-24T08:05:24.429Z,99605.06
2023-07-24T08:07:58.239Z,99611.47
2023-07-24T08:10:30.699Z,99618.63
2023-07-24T08:13:01.478Z,99624.09
2023-07-24T08:15:34.515Z,99618.00
2023-07-24T08:18:05.783Z,99597.78
2023-07-24T08:20:41.514Z,99589.13
2023-07-24T08:23:19.942Z,99608.59
2023-07-24T08:25:57.277Z,99608.34
2023-07-24T08:31:39.598Z,99621.56
2023-07-24T08:34:11.468Z,99632.66
2023-07-24T08:36:44.793Z,99601.53
2023-07-24T08:39:15.608Z,99613.38
2023-07-24T08:41:48.594Z,99609.38
2023-07-24T08:44:25.476Z,99590.78
2023-07-24T08:46:56.358Z,99608.16
2023-07-24T08:49:39.482Z,99599.59
2023-07-24T08:52:26.932Z,99600.47
2023-07-24T08:55:05.915Z,99594.63
2023-07-24T08:57:36.774Z,99578.59
2023-07-24T09:03:09.601Z,99584.75
2023-07-24T09:05:40.403Z,99572.47
2023-07-24T09:08:14.033Z,99592.84
2023-07-24T09:10:45.333Z,99563.84
2023-07-24T09:13:16.614Z,99576.91
2023-07-24T09:15:48.460Z,99598.03
2023-07-24T09:18:19.632Z,99594.25
2023-07-24T09:20:51.820Z,99568.59
2023-07-24T09:23:34.414Z,99591.06
2023-07-24T09:26:13.215Z,99604.88
2023-07-24T09:28:44.246Z,99585.53
2023-07-24T09:31:15.525Z,99579.31
2023-07-24T09:33:46.636Z,99583.34
2023-07-24T09:36:18.045Z,99584.28
2023-07-24T09:38:55.038Z,99588.25
2023-07-24T09:41:32.777Z,99591.78
2023-07-24T09:44:03.729Z,99587.88
2023-07-24T09:46:46.161Z,99593.06
2023-07-24T09:49:34.636Z,99600.16
2023-07-24T09:52:11.446Z,99594.63
2023-07-24T09:55:03.441Z,99583.47
2023-07-24T09:57:45.503Z,99593.72
2023-07-24T10:00:19.309Z,99594.69
2023-07-24T10:02:51.483Z,99588.16
2023-07-24T10:05:46.379Z,99592.97
2023-07-24T10:08:19.049Z,99574.13
2023-07-24T10:10:54.752Z,99565.94
2023-07-24T10:13:26.452Z,99571.25
2023-07-24T10:15:58.227Z,99555.66
2023-07-24T10:18:31.507Z,99580.97
2023-07-24T10:21:07.332Z,99569.06
2023-07-24T10:23:42.118Z,99564.75
2023-07-24T10:26:15.945Z,99557.78
2023-07-24T10:28:52.656Z,99559.44
2023-07-24T10:31:26.615Z,99561.28
2023-07-24T10:34:01.733Z,99560.94
2023-07-24T10:36:38.236Z,99547.66
2023-07-24T10:39:20.033Z,99541.63
2023-07-24T10:41:53.545Z,99541.84
2023-07-24T10:44:41.641Z,99534.44
2023-07-24T10:47:12.855Z,99530.84
2023-07-24T10:49:53.429Z,99540.25
2023-07-24T10:52:31.989Z,99526.41
2023-07-24T10:55:06.037Z,99527.41
2023-07-24T10:57:40.052Z,99527.00
2023-07-24T11:00:18.331Z,99500.50
2023-07-24T11:02:49.380Z,99526.97
2023-07-24T11:05:22.338Z,99519.25
2023-07-24T11:08:06.256Z,99517.97
2023-07-24T11:10:37.453Z,99526.75
2023-07-24T11:13:26.190Z,99522.16
2023-07-24T11:15:58.061Z,99517.13
2023-07-24T11:18:40.658Z,99519.19
2023-07-24T11:21:22.484Z,99482.94
2023-07-24T11:23:54.637Z,99508.81
2023-07-24T11:26:29.710Z,99527.63
2023-07-24T11:29:07.266Z,99520.34
2023-07-24T11:31:41.575Z,99509.84
2023-07-24T11:34:12.848Z,99503.56
2023-07-24T11:36:43.687Z,99491.81
2023-07-24T11:39:19.687Z,99550.47
2023-07-24T11:41:57.473Z,99567.34
2023-07-24T11:44:32.636Z,99569.97
2023-07-24T11:47:10.755Z,99573.78
2023-07-24T11:49:51.770Z,99574.16
2023-07-24T11:52:25.105Z,99572.16
2023-07-24T11:55:04.853Z,99566.13
2023-07-24T11:57:36.807Z,99569.94
2023-07-24T12:00:26.461Z,99568.88
2023-07-24T12:02:57.457Z,99559.66
2023-07-24T12:05:28.340Z,99549.03
2023-07-24T12:08:04.563Z,99541.53
2023-07-24T12:10:35.744Z,99542.41
2023-07-24T12:13:06.621Z,99542.50
2023-07-24T12:15:42.169Z,99529.94
2023-07-24T12:18:16.701Z,99541.97
2023-07-24T12:20:48.682Z,99525.97
2023-07-24T12:23:20.084Z,99533.84
2023-07-24T12:25:51.993Z,99537.47
2023-07-24T12:28:25.221Z,99537.09
2023-07-24T12:30:59.505Z,99536.25
2023-07-24T12:33:30.342Z,99544.22
2023-07-24T12:36:01.362Z,99547.09
2023-07-24T12:38:32.338Z,99544.31
2023-07-24T12:41:04.748Z,99535.00
2023-07-24T12:43:35.482Z,99540.34
2023-07-24T12:46:08.994Z,99542.56
2023-07-24T12:48:39.691Z,99536.56
2023-07-24T12:51:10.615Z,99525.47
2023-07-24T12:53:46.954Z,99527.50
2023-07-24T12:56:32.985Z,99522.97
2023-07-24T12:59:04.054Z,99522.91
2023-07-24T13:01:40.600Z,99514.59
2023-07-24T13:04:12.007Z,99505.38
2023-07-24T13:06:48.682Z,99502.22
2023-07-24T13:09:19.677Z,99503.81
2023-07-24T13:11:52.741Z,99502.19
2023-07-24T13:14:31.007Z,99507.28
2023-07-24T13:17:06.585Z,99492.25
2023-07-24T13:19:38.026Z,99483.72
2023-07-24T13:22:10.926Z,99480.38
2023-07-24T13:24:41.769Z,99446.22
2023-07-24T13:27:12.654Z,99459.81
2023-07-24T13:29:43.790Z,99459.06
2023-07-24T13:32:17.372Z,99455.63
2023-07-24T13:34:54.299Z,99434.09
2023-07-24T13:37:25.881Z,99454.88
2023-07-24T13:39:59.310Z,99457.28
2023-07-24T13:42:31.244Z,99459.06
2023-07-24T13:45:04.375Z,99465.31
2023-07-24T13:47:37.924Z,99471.84
2023-07-24T13:50:10.141Z,99486.72
2023-07-24T13:52:41.009Z,99479.28
2023-07-24T13:55:12.223Z,99479.28
2023-07-24T13:57:42.960Z,99486.09
2023-07-24T14:00:14.956Z,99490.53
2023-07-24T14:02:51.620Z,99494.16
2023-07-24T14:05:24.447Z,99487.25
2023-07-24T14:07:56.853Z,99484.94
2023-07-24T14:10:34.970Z,99489.81
2023-07-24T14:13:09.168Z,99496.38
2023-07-24T14:15:39.858Z,99500.72
2023-07-24T14:18:13.517Z,99499.50
2023-07-24T14:20:44.646Z,99507.06
2023-07-24T14:23:15.495Z,99504.13
2023-07-24T14:25:48.755Z,99490.81
2023-07-24T14:28:19.899Z,99476.69
2023-07-24T14:30:51.266Z,99464.31
2023-07-24T14:33:25.826Z,99458.97
2023-07-24T14:35:56.842Z,99461.41
2023-07-24T14:38:30.330Z,99471.66
2023-07-24T14:41:05.007Z,99469.16
2023-07-24T14:43:39.138Z,99461.69
2023-07-24T14:46:09.675Z,99458.47
2023-07-24T14:48:42.904Z,99449.47
2023-07-24T14:51:19.579Z,99453.09
2023-07-24T14:53:50.353Z,99444.59
2023-07-24T14:56:21.157Z,99439.38
2023-07-24T14:58:54.722Z,99432.53
2023-07-24T15:01:29.905Z,99428.94
2023-07-24T15:04:11.178Z,99396.34
2023-07-24T15:06:43.081Z,99387.91
2023-07-24T15:09:14.131Z,99355.78
2023-07-24T15:11:52.385Z,99358.56
2023-07-24T15:14:26.492Z,99350.84
2023-07-24T15:16:57.416Z,99349.00
2023-07-24T15:19:33.942Z,99349.81
2023-07-24T15:22:04.717Z,99385.47
2023-07-24T15:24:44.504Z,99375.09
2023-07-24T15:27:16.013Z,99374.09
2023-07-24T15:29:49.176Z,99370.13
2023-07-24T15:32:29.423Z,99355.28
2023-07-24T15:35:04.539Z,99369.53
2023-07-24T15:37:35.507Z,99352.66
2023-07-24T15:40:09.691Z,99363.91
2023-07-24T15:42:48.184Z,99360.00
2023-07-24T15:45:18.803Z,99356.88
2023-07-24T15:47:49.502Z,99357.84
2023-07-24T15:50:22.762Z,99357.63
2023-07-24T15:53:01.168Z,99341.34
2023-07-24T15:55:32.061Z,99345.94
2023-07-24T15:58:03.070Z,99352.78
2023-07-24T16:00:36.329Z,99347.91
2023-07-24T16:03:10.011Z,99347.69
2023-07-24T16:05:43.558Z,99361.91
2023-07-24T16:08:22.016Z,99356.50
2023-07-24T16:10:57.452Z,99357.97
2023-07-24T16:13:32.360Z,99371.09
2023-07-24T16:16:06.126Z,99381.19
2023-07-24T16:18:36.868Z,99371.63
2023-07-24T16:21:11.649Z,99376.47
2023-07-24T16:23:42.610Z,99388.28
2023-07-24T16:26:13.268Z,99388.78
2023-07-24T16:28:44.207Z,99399.59
2023-07-24T16:31:16.563Z,99387.78
2023-07-24T16:33:49.669Z,99386.22
2023-07-24T16:36:23.550Z,99383.94
2023-07-24T16:38:54.241Z,99384.94
2023-07-24T16:41:25.063Z,99393.22
2023-07-24T16:43:55.699Z,99395.63
2023-07-24T16:46:27.130Z,99398.09
2023-07-24T16:49:04.203Z,99406.69
2023-07-24T16:51:37.808Z,99409.25
2023-07-24T16:54:10.314Z,99403.19
2023-07-24T16:56:42.139Z,99411.47
2023-07-24T16:59:12.952Z,99394.06
2023-07-24T17:01:43.900Z,99397.47
2023-07-24T17:04:16.884Z,99378.34
2023-07-24T17:06:50.282Z,99393.59
2023-07-24T17:09:22.711Z,99392.78
2023-07-24T17:11:53.894Z,99399.38
2023-07-24T17:14:26.151Z,99398.44
2023-07-24T17:16:57.082Z,99396.59
2023-07-24T17:19:33.114Z,99397.41
2023-07-24T17:22:06.894Z,99367.06
2023-07-24T17:24:37.726Z,99386.16
2023-07-24T17:27:10.210Z,99379.28
2023-07-24T17:29:40.972Z,99381.13
2023-07-24T17:32:14.906Z,99381.19
2023-07-24T17:34:45.330Z,99383.69
2023-07-24T17:37:36.418Z,99373.13
2023-07-24T17:40:09.980Z,99386.91
2023-07-24T17:42:42.480Z,99389.13
2023-07-24T17:45:14.169Z,99391.06
2023-07-24T17:47:44.838Z,99386.06
2023-07-24T17:50:15.782Z,99388.50
2023-07-24T17:52:51.442Z,99390.13
2023-07-24T17:55:22.893Z,99395.00
2023-07-24T17:57:55.055Z,99388.00
2023-07-24T18:00:26.109Z,99399.91
2023-07-24T18:03:00.405Z,99397.25
2023-07-24T18:05:34.917Z,99389.44
2023-07-24T18:08:11.596Z,99397.09
2023-07-24T18:10:42.566Z,99403.63
2023-07-24T18:13:14.151Z,99393.97
2023-07-24T18:15:44.962Z,99391.25
2023-07-24T18:18:15.970Z,99392.66
2023-07-24T18:20:47.044Z,99402.72
2023-07-24T18:23:21.565Z,99402.50
2023-07-24T18:25:57.144Z,99400.63
2023-07-24T18:28:29.997Z,99383.53
2023-07-24T18:31:00.757Z,99421.56
2023-07-24T18:33:32.172Z,99424.88
2023-07-24T18:36:02.917Z,99413.22
2023-07-24T18:38:37.084Z,99433.94
2023-07-24T18:41:08.087Z,99452.84
2023-07-24T18:43:41.211Z,99454.50
2023-07-24T18:46:12.360Z,99492.41
2023-07-24T18:48:43.955Z,99541.00
2023-07-24T18:51:17.218Z,99532.31
2023-07-24T18:53:59.591Z,99529.66
2023-07-24T18:56:30.506Z,99526.56
2023-07-24T18:59:02.138Z,99527.34
2023-07-24T19:01:33.538Z,99527.69
2023-07-24T19:04:05.208Z,99527.22
2023-07-24T19:06:38.688Z,99538.81
2023-07-24T19:09:12.507Z,99538.31
2023-07-24T19:11:43.783Z,99541.25
2023-07-24T19:14:17.020Z,99535.69
2023-07-24T19:16:48.148Z,99545.94
2023-07-24T19:19:18.907Z,99547.53
2023-07-24T19:21:50.583Z,99552.34
2023-07-24T19:24:27.045Z,99561.69
2023-07-24T19:26:57.885Z,99561.50
2023-07-24T19:29:31.414Z,99564.88
2023-07-24T19:32:03.494Z,99572.50
2023-07-24T19:34:35.088Z,99570.72
2023-07-24T19:37:06.362Z,99574.97
2023-07-24T19:39:41.534Z,99579.94
2023-07-24T19:42:19.009Z,99584.06
2023-07-24T19:44:49.936Z,99583.06
2023-07-24T19:47:20.990Z,99578.72
2023-07-24T19:49:52.435Z,99599.19
2023-07-24T19:52:24.310Z,99583.41
2023-07-24T19:54:57.930Z,99607.69
2023-07-24T19:57:30.602Z,99584.56
2023-07-24T20:00:01.287Z,99569.09
2023-07-24T20:02:32.188Z,99610.63
2023-07-24T20:05:04.856Z,99600.47
2023-07-24T20:07:35.880Z,99605.22
2023-07-24T20:10:10.573Z,99608.53
2023-07-24T20:12:42.304Z,99624.69
2023-07-24T20:15:17.279Z,99626.78
2023-07-24T20:17:48.256Z,99625.25
2023-07-24T20:20:19.688Z,99637.34
2023-07-24T20:22:50.326Z,99642.25
2023-07-24T20:25:23.693Z,99637.41
2023-07-24T20:27:54.729Z,99637.34
2023-07-24T20:30:27.025Z,99647.03
2023-07-24T20:32:57.711Z,99642.66
2023-07-24T20:35:32.069Z,99643.28
2023-07-24T20:38:03.823Z,99642.75
2023-07-24T20:40:37.848Z,99651.78
2023-07-24T20:43:10.066Z,99652.25
2023-07-24T20:45:40.708Z,99645.44
2023-07-24T20:48:11.444Z,99652.09
2023-07-24T20:50:51.385Z,99643.44
2023-07-24T20:53:22.146Z,99652.41
2023-07-24T20:55:55.786Z,99642.53
2023-07-24T20:58:26.786Z,99648.97
2023-07-24T21:01:02.590Z,99659.47
2023-07-24T21:03:40.802Z,99661.31
2023-07-24T21:06:11.450Z,99654.06
2023-07-24T21:08:43.215Z,99648.97
2023-07-24T21:11:17.229Z,99652.06
2023-07-24T21:13:48.464Z,99658.31
2023-07-24T21:16:19.143Z,99667.63
2023-07-24T21:18:50.050Z,99665.00
2023-07-24T21:21:21.342Z,99662.22
2023-07-24T21:23:51.976Z,99667.75
2023-07-24T21:26:27.881Z,99669.97
2023-07-24T21:29:01.432Z,99677.22
2023-07-24T21:31:39.603Z,99679.94
2023-07-24T21:34:10.311Z,99652.44
2023-07-24T21:36:40.879Z,99689.81
2023-07-24T21:39:13.242Z,99677.13
2023-07-24T21:41:46.512Z,99678.84
2023-07-24T21:44:19.532Z,99683.25
2023-07-24T21:46:50.234Z,99686.59
2023-07-24T21:49:34.660Z,99693.25
2023-07-24T21:52:07.161Z,99686.94
2023-07-24T21:54:37.793Z,99703.22
2023-07-24T21:57:12.979Z,99692.28
2023-07-24T21:59:43.686Z,99709.28
2023-07-24T22:02:15.093Z,99710.00
2023-07-24T22:04:49.173Z,99698.25
2023-07-24T22:07:19.464Z,99710.94
2023-07-24T22:09:50.209Z,99713.22
2023-07-24T22:12:23.714Z,99709.66
2023-07-24T22:14:54.296Z,99710.63
2023-07-24T22:17:29.402Z,99716.97
2023-07-24T22:20:00.071Z,99718.31
2023-07-24T22:22:33.604Z,99723.03
2023-07-24T22:25:06.827Z,99710.94
2023-07-24T22:27:42.202Z,99729.41
2023-07-24T22:30:14.492Z,99726.00
2023-07-24T22:32:47.900Z,99735.00
2023-07-24T22:35:22.425Z,99730.31
2023-07-24T22:37:55.442Z,99729.66
2023-07-24T22:40:26.178Z,99731.69
2023-07-24T22:42:59.428Z,99732.81
2023-07-24T22:45:30.428Z,99725.44
2023-07-24T22:48:01.316Z,99730.19
2023-07-24T22:50:32.107Z,99732.38
2023-07-24T22:53:02.945Z,99735.22
2023-07-24T22:55:33.658Z,99733.19
2023-07-24T22:58:08.615Z,99739.00
2023-07-24T23:00:41.322Z,99732.06
2023-07-24T23:03:15.326Z,99744.75
2023-07-24T23:05:49.560Z,99743.09
2023-07-24T23:08:37.483Z,99751.38
2023-07-24T23:11:25.582Z,99747.97
2023-07-24T23:14:12.043Z,99750.25
2023-07-24T23:17:11.644Z,99762.56
2023-07-24T23:20:03.532Z,99770.41
2023-07-24T23:22:34.207Z,99769.19
2023-07-24T23:25:05.415Z,99775.09
2023-07-24T23:27:43.716Z,99773.75
2023-07-24T23:30:32.741Z,99771.47
2023-07-24T23:33:04.400Z,99773.66
2023-07-24T23:35:38.017Z,99750.66
2023-07-24T23:38:08.581Z,99777.16
2023-07-24T23:40:50.882Z,99766.53
2023-07-24T23:43:23.362Z,99774.91
2023-07-24T23:45:59.286Z,99783.81
2023-07-24T23:48:29.909Z,99778.06
2023-07-24T23:51:03.242Z,99778.56
2023-07-24T23:53:40.265Z,99786.56
2023-07-24T23:56:13.670Z,99793.88
2023-07-24T23:58:47.526Z,99793.69
